sensor_id;sensor_type;location;lat;lon;timestamp;P1;durP1;ratioP1;P2;durP2;ratioP2
52354;SDS011;38286;51.156;17.038;2022-11-18T00:00:27;12.27;;;7.95;;
52354;SDS011;38286;51.156;17.038;2022-11-18T00:02:59;11.05;;;7.53;;
52354;SDS011;38286;51.156;17.038;2022-11-18T00:05:24;15.48;;;8.43;;
52354;SDS011;38286;51.156;17.038;2022-11-18T00:07:50;12.32;;;7.95;;
52354;SDS011;38286;51.156;17.038;2022-11-18T00:10:15;12.60;;;7.13;;
52354;SDS011;38286;51.156;17.038;2022-11-18T00:12:41;13.63;;;7.70;;
52354;SDS011;38286;51.156;17.038;2022-11-18T00:15:25;13.18;;;7.80;;
52354;SDS011;38286;51.156;17.038;2022-11-18T00:17:51;12.23;;;6.85;;
52354;SDS011;38286;51.156;17.038;2022-11-18T00:20:17;11.57;;;6.55;;
52354;SDS011;38286;51.156;17.038;2022-11-18T00:22:44;13.98;;;7.82;;
52354;SDS011;38286;51.156;17.038;2022-11-18T00:25:10;14.35;;;8.25;;
52354;SDS011;38286;51.156;17.038;2022-11-18T00:27:35;15.15;;;8.45;;
52354;SDS011;38286;51.156;17.038;2022-11-18T00:30:01;16.55;;;8.55;;
52354;SDS011;38286;51.156;17.038;2022-11-18T00:32:27;14.18;;;8.27;;
52354;SDS011;38286;51.156;17.038;2022-11-18T00:34:52;12.35;;;7.72;;
52354;SDS011;38286;51.156;17.038;2022-11-18T00:37:18;14.77;;;9.02;;
52354;SDS011;38286;51.156;17.038;2022-11-18T00:39:43;15.55;;;8.07;;
52354;SDS011;38286;51.156;17.038;2022-11-18T00:42:09;16.25;;;9.20;;
52354;SDS011;38286;51.156;17.038;2022-11-18T00:44:54;13.82;;;8.07;;
52354;SDS011;38286;51.156;17.038;2022-11-18T00:47:19;13.20;;;8.40;;
52354;SDS011;38286;51.156;17.038;2022-11-18T00:49:45;15.18;;;8.30;;
52354;SDS011;38286;51.156;17.038;2022-11-18T00:52:11;13.43;;;8.27;;
52354;SDS011;38286;51.156;17.038;2022-11-18T00:54:36;14.35;;;8.13;;
52354;SDS011;38286;51.156;17.038;2022-11-18T00:57:02;13.57;;;8.15;;
52354;SDS011;38286;51.156;17.038;2022-11-18T00:59:29;16.10;;;8.25;;
52354;SDS011;38286;51.156;17.038;2022-11-18T01:01:55;15.50;;;8.65;;
52354;SDS011;38286;51.156;17.038;2022-11-18T01:04:20;14.75;;;8.77;;
52354;SDS011;38286;51.156;17.038;2022-11-18T01:06:46;13.70;;;8.40;;
52354;SDS011;38286;51.156;17.038;2022-11-18T01:09:12;14.18;;;8.63;;
52354;SDS011;38286;51.156;17.038;2022-11-18T01:11:37;16.77;;;8.80;;
52354;SDS011;38286;51.156;17.038;2022-11-18T01:14:24;17.17;;;9.95;;
52354;SDS011;38286;51.156;17.038;2022-11-18T01:16:54;14.63;;;9.07;;
52354;SDS011;38286;51.156;17.038;2022-11-18T01:19:20;17.40;;;8.95;;
52354;SDS011;38286;51.156;17.038;2022-11-18T01:21:46;12.90;;;8.32;;
52354;SDS011;38286;51.156;17.038;2022-11-18T01:24:12;16.52;;;9.13;;
52354;SDS011;38286;51.156;17.038;2022-11-18T01:26:38;14.05;;;8.90;;
52354;SDS011;38286;51.156;17.038;2022-11-18T01:29:03;15.65;;;8.10;;
52354;SDS011;38286;51.156;17.038;2022-11-18T01:31:29;15.82;;;9.32;;
52354;SDS011;38286;51.156;17.038;2022-11-18T01:33:55;13.98;;;8.70;;
52354;SDS011;38286;51.156;17.038;2022-11-18T01:36:22;18.13;;;9.18;;
52354;SDS011;38286;51.156;17.038;2022-11-18T01:38:52;13.65;;;7.70;;
52354;SDS011;38286;51.156;17.038;2022-11-18T01:41:19;14.88;;;8.90;;
52354;SDS011;38286;51.156;17.038;2022-11-18T01:46:19;15.55;;;9.52;;
52354;SDS011;38286;51.156;17.038;2022-11-18T01:48:45;13.85;;;8.30;;
52354;SDS011;38286;51.156;17.038;2022-11-18T01:51:14;16.02;;;9.40;;
52354;SDS011;38286;51.156;17.038;2022-11-18T01:53:42;18.38;;;8.80;;
52354;SDS011;38286;51.156;17.038;2022-11-18T01:56:14;15.88;;;9.35;;
52354;SDS011;38286;51.156;17.038;2022-11-18T01:58:43;11.80;;;8.38;;
52354;SDS011;38286;51.156;17.038;2022-11-18T02:01:19;14.98;;;8.70;;
52354;SDS011;38286;51.156;17.038;2022-11-18T02:03:44;12.13;;;7.63;;
52354;SDS011;38286;51.156;17.038;2022-11-18T02:06:11;14.23;;;8.30;;
52354;SDS011;38286;51.156;17.038;2022-11-18T02:08:37;16.25;;;8.25;;
52354;SDS011;38286;51.156;17.038;2022-11-18T02:11:05;15.05;;;8.07;;
52354;SDS011;38286;51.156;17.038;2022-11-18T02:13:34;13.75;;;9.13;;
52354;SDS011;38286;51.156;17.038;2022-11-18T02:16:16;14.32;;;7.88;;
52354;SDS011;38286;51.156;17.038;2022-11-18T02:21:31;20.48;;;10.45;;
52354;SDS011;38286;51.156;17.038;2022-11-18T02:29:54;14.55;;;8.80;;
52354;SDS011;38286;51.156;17.038;2022-11-18T02:32:23;15.75;;;9.10;;
52354;SDS011;38286;51.156;17.038;2022-11-18T02:34:52;15.18;;;8.55;;
52354;SDS011;38286;51.156;17.038;2022-11-18T02:37:39;16.30;;;8.95;;
52354;SDS011;38286;51.156;17.038;2022-11-18T02:42:42;14.43;;;9.00;;
52354;SDS011;38286;51.156;17.038;2022-11-18T02:45:10;17.27;;;9.35;;
52354;SDS011;38286;51.156;17.038;2022-11-18T02:47:37;14.90;;;8.20;;
52354;SDS011;38286;51.156;17.038;2022-11-18T02:50:05;15.50;;;9.20;;
52354;SDS011;38286;51.156;17.038;2022-11-18T02:52:33;17.55;;;9.55;;
52354;SDS011;38286;51.156;17.038;2022-11-18T02:55:00;16.48;;;9.70;;
52354;SDS011;38286;51.156;17.038;2022-11-18T02:57:27;17.27;;;9.82;;
52354;SDS011;38286;51.156;17.038;2022-11-18T02:59:54;19.10;;;9.65;;
52354;SDS011;38286;51.156;17.038;2022-11-18T03:02:20;15.95;;;9.68;;
52354;SDS011;38286;51.156;17.038;2022-11-18T03:04:46;19.73;;;10.25;;
52354;SDS011;38286;51.156;17.038;2022-11-18T03:09:45;16.67;;;9.50;;
52354;SDS011;38286;51.156;17.038;2022-11-18T03:14:54;17.50;;;9.68;;
52354;SDS011;38286;51.156;17.038;2022-11-18T03:20:50;16.25;;;9.82;;
52354;SDS011;38286;51.156;17.038;2022-11-18T03:33:47;19.30;;;10.15;;
52354;SDS011;38286;51.156;17.038;2022-11-18T03:36:14;19.85;;;10.25;;
52354;SDS011;38286;51.156;17.038;2022-11-18T03:38:42;19.50;;;11.23;;
52354;SDS011;38286;51.156;17.038;2022-11-18T03:41:14;19.08;;;10.95;;
52354;SDS011;38286;51.156;17.038;2022-11-18T03:43:51;22.38;;;12.10;;
52354;SDS011;38286;51.156;17.038;2022-11-18T03:46:22;20.58;;;11.32;;
52354;SDS011;38286;51.156;17.038;2022-11-18T03:49:10;24.95;;;11.85;;
52354;SDS011;38286;51.156;17.038;2022-11-18T03:51:40;21.63;;;12.40;;
52354;SDS011;38286;51.156;17.038;2022-11-18T03:54:08;26.15;;;12.40;;
52354;SDS011;38286;51.156;17.038;2022-11-18T03:56:41;26.35;;;12.57;;
52354;SDS011;38286;51.156;17.038;2022-11-18T04:01:40;25.13;;;12.55;;
52354;SDS011;38286;51.156;17.038;2022-11-18T04:04:09;23.88;;;12.18;;
52354;SDS011;38286;51.156;17.038;2022-11-18T04:06:41;25.58;;;12.30;;
52354;SDS011;38286;51.156;17.038;2022-11-18T04:09:13;22.75;;;11.48;;
52354;SDS011;38286;51.156;17.038;2022-11-18T04:11:43;28.88;;;12.43;;
52354;SDS011;38286;51.156;17.038;2022-11-18T04:17:15;22.95;;;11.48;;
52354;SDS011;38286;51.156;17.038;2022-11-18T04:19:42;23.45;;;11.73;;
52354;SDS011;38286;51.156;17.038;2022-11-18T04:22:08;21.17;;;11.95;;
52354;SDS011;38286;51.156;17.038;2022-11-18T04:24:34;28.92;;;13.93;;
52354;SDS011;38286;51.156;17.038;2022-11-18T04:27:01;28.42;;;14.25;;
52354;SDS011;38286;51.156;17.038;2022-11-18T04:29:28;24.77;;;13.93;;
52354;SDS011;38286;51.156;17.038;2022-11-18T04:31:54;29.80;;;14.05;;
52354;SDS011;38286;51.156;17.038;2022-11-18T04:34:20;29.45;;;13.65;;
52354;SDS011;38286;51.156;17.038;2022-11-18T04:36:45;30.25;;;13.98;;
52354;SDS011;38286;51.156;17.038;2022-11-18T04:39:11;27.42;;;13.65;;
52354;SDS011;38286;51.156;17.038;2022-11-18T04:41:36;28.85;;;13.52;;
52354;SDS011;38286;51.156;17.038;2022-11-18T04:44:25;29.88;;;15.55;;
52354;SDS011;38286;51.156;17.038;2022-11-18T04:46:51;30.52;;;14.80;;
52354;SDS011;38286;51.156;17.038;2022-11-18T04:49:17;32.10;;;15.63;;
52354;SDS011;38286;51.156;17.038;2022-11-18T04:51:43;31.25;;;15.30;;
52354;SDS011;38286;51.156;17.038;2022-11-18T04:54:10;30.80;;;14.85;;
52354;SDS011;38286;51.156;17.038;2022-11-18T04:56:36;29.90;;;14.07;;
52354;SDS011;38286;51.156;17.038;2022-11-18T04:59:02;29.58;;;14.85;;
52354;SDS011;38286;51.156;17.038;2022-11-18T05:01:29;27.50;;;13.68;;
52354;SDS011;38286;51.156;17.038;2022-11-18T05:03:56;28.30;;;13.70;;
52354;SDS011;38286;51.156;17.038;2022-11-18T05:06:21;28.85;;;14.13;;
52354;SDS011;38286;51.156;17.038;2022-11-18T05:08:47;28.38;;;13.80;;
52354;SDS011;38286;51.156;17.038;2022-11-18T05:11:13;25.83;;;13.60;;
52354;SDS011;38286;51.156;17.038;2022-11-18T05:13:57;26.58;;;12.98;;
52354;SDS011;38286;51.156;17.038;2022-11-18T05:16:22;29.05;;;12.77;;
52354;SDS011;38286;51.156;17.038;2022-11-18T05:18:48;24.83;;;12.50;;
52354;SDS011;38286;51.156;17.038;2022-11-18T05:21:14;24.55;;;12.73;;
52354;SDS011;38286;51.156;17.038;2022-11-18T05:23:39;26.08;;;12.57;;
52354;SDS011;38286;51.156;17.038;2022-11-18T05:26:06;27.25;;;13.55;;
52354;SDS011;38286;51.156;17.038;2022-11-18T05:28:33;28.17;;;13.85;;
52354;SDS011;38286;51.156;17.038;2022-11-18T05:30:59;26.55;;;12.30;;
52354;SDS011;38286;51.156;17.038;2022-11-18T05:33:25;28.73;;;13.80;;
52354;SDS011;38286;51.156;17.038;2022-11-18T05:35:50;27.65;;;12.77;;
52354;SDS011;38286;51.156;17.038;2022-11-18T05:38:16;24.92;;;12.38;;
52354;SDS011;38286;51.156;17.038;2022-11-18T05:40:41;23.52;;;12.07;;
52354;SDS011;38286;51.156;17.038;2022-11-18T05:43:08;26.85;;;12.55;;
52354;SDS011;38286;51.156;17.038;2022-11-18T05:45:37;27.00;;;12.25;;
52354;SDS011;38286;51.156;17.038;2022-11-18T05:48:04;26.30;;;12.38;;
52354;SDS011;38286;51.156;17.038;2022-11-18T05:50:31;23.73;;;12.00;;
52354;SDS011;38286;51.156;17.038;2022-11-18T05:52:58;28.25;;;13.07;;
52354;SDS011;38286;51.156;17.038;2022-11-18T05:55:32;28.02;;;13.75;;
52354;SDS011;38286;51.156;17.038;2022-11-18T05:58:01;24.10;;;12.70;;
52354;SDS011;38286;51.156;17.038;2022-11-18T06:00:26;30.92;;;13.27;;
52354;SDS011;38286;51.156;17.038;2022-11-18T06:02:52;28.77;;;12.68;;
52354;SDS011;38286;51.156;17.038;2022-11-18T06:05:19;29.77;;;14.48;;
52354;SDS011;38286;51.156;17.038;2022-11-18T06:07:45;32.50;;;13.48;;
52354;SDS011;38286;51.156;17.038;2022-11-18T06:10:12;32.05;;;14.38;;
52354;SDS011;38286;51.156;17.038;2022-11-18T06:12:42;28.92;;;13.20;;
52354;SDS011;38286;51.156;17.038;2022-11-18T06:15:13;29.67;;;14.40;;
52354;SDS011;38286;51.156;17.038;2022-11-18T06:17:44;26.48;;;13.70;;
52354;SDS011;38286;51.156;17.038;2022-11-18T06:20:11;28.27;;;14.35;;
52354;SDS011;38286;51.156;17.038;2022-11-18T06:22:37;27.80;;;13.20;;
52354;SDS011;38286;51.156;17.038;2022-11-18T06:25:03;25.55;;;12.77;;
52354;SDS011;38286;51.156;17.038;2022-11-18T06:27:29;28.23;;;14.02;;
52354;SDS011;38286;51.156;17.038;2022-11-18T06:29:55;27.33;;;14.68;;
52354;SDS011;38286;51.156;17.038;2022-11-18T06:32:21;29.33;;;13.82;;
52354;SDS011;38286;51.156;17.038;2022-11-18T06:34:46;27.30;;;13.10;;
52354;SDS011;38286;51.156;17.038;2022-11-18T06:37:16;31.25;;;15.27;;
52354;SDS011;38286;51.156;17.038;2022-11-18T06:39:44;31.75;;;15.32;;
52354;SDS011;38286;51.156;17.038;2022-11-18T06:42:10;32.42;;;15.13;;
52354;SDS011;38286;51.156;17.038;2022-11-18T06:44:56;30.27;;;15.82;;
52354;SDS011;38286;51.156;17.038;2022-11-18T06:47:22;37.22;;;16.48;;
52354;SDS011;38286;51.156;17.038;2022-11-18T06:49:47;32.53;;;17.15;;
52354;SDS011;38286;51.156;17.038;2022-11-18T06:52:13;33.13;;;16.40;;
52354;SDS011;38286;51.156;17.038;2022-11-18T06:54:38;37.28;;;16.00;;
52354;SDS011;38286;51.156;17.038;2022-11-18T06:57:04;33.85;;;16.10;;
52354;SDS011;38286;51.156;17.038;2022-11-18T06:59:30;42.00;;;18.48;;
52354;SDS011;38286;51.156;17.038;2022-11-18T07:01:55;37.95;;;17.13;;
52354;SDS011;38286;51.156;17.038;2022-11-18T07:04:21;33.10;;;16.65;;
52354;SDS011;38286;51.156;17.038;2022-11-18T07:06:47;36.58;;;17.02;;
52354;SDS011;38286;51.156;17.038;2022-11-18T07:09:12;38.28;;;17.85;;
52354;SDS011;38286;51.156;17.038;2022-11-18T07:11:38;39.83;;;16.50;;
52354;SDS011;38286;51.156;17.038;2022-11-18T07:14:05;37.17;;;16.63;;
52354;SDS011;38286;51.156;17.038;2022-11-18T07:16:33;35.25;;;16.52;;
52354;SDS011;38286;51.156;17.038;2022-11-18T07:18:59;33.95;;;16.55;;
52354;SDS011;38286;51.156;17.038;2022-11-18T07:21:25;35.40;;;15.45;;
52354;SDS011;38286;51.156;17.038;2022-11-18T07:23:52;40.05;;;17.75;;
52354;SDS011;38286;51.156;17.038;2022-11-18T07:26:18;31.23;;;14.02;;
52354;SDS011;38286;51.156;17.038;2022-11-18T07:28:45;33.92;;;15.23;;
52354;SDS011;38286;51.156;17.038;2022-11-18T07:31:11;30.70;;;14.88;;
52354;SDS011;38286;51.156;17.038;2022-11-18T07:33:42;34.38;;;14.82;;
52354;SDS011;38286;51.156;17.038;2022-11-18T07:36:12;30.77;;;13.43;;
52354;SDS011;38286;51.156;17.038;2022-11-18T07:38:42;33.63;;;14.88;;
52354;SDS011;38286;51.156;17.038;2022-11-18T07:41:13;29.02;;;13.60;;
52354;SDS011;38286;51.156;17.038;2022-11-18T07:43:39;33.63;;;15.80;;
52354;SDS011;38286;51.156;17.038;2022-11-18T07:48:43;31.05;;;15.60;;
52354;SDS011;38286;51.156;17.038;2022-11-18T07:51:10;31.00;;;14.85;;
52354;SDS011;38286;51.156;17.038;2022-11-18T07:53:36;36.85;;;16.10;;
52354;SDS011;38286;51.156;17.038;2022-11-18T07:56:02;33.38;;;15.70;;
52354;SDS011;38286;51.156;17.038;2022-11-18T07:58:28;29.75;;;14.00;;
52354;SDS011;38286;51.156;17.038;2022-11-18T08:00:54;34.08;;;16.73;;
52354;SDS011;38286;51.156;17.038;2022-11-18T08:03:24;36.35;;;16.13;;
52354;SDS011;38286;51.156;17.038;2022-11-18T08:05:51;33.92;;;15.55;;
52354;SDS011;38286;51.156;17.038;2022-11-18T08:08:17;32.20;;;15.23;;
52354;SDS011;38286;51.156;17.038;2022-11-18T08:10:42;34.05;;;16.10;;
52354;SDS011;38286;51.156;17.038;2022-11-18T08:13:08;38.30;;;17.00;;
52354;SDS011;38286;51.156;17.038;2022-11-18T08:15:34;43.42;;;17.33;;
52354;SDS011;38286;51.156;17.038;2022-11-18T08:17:59;41.17;;;18.95;;
52354;SDS011;38286;51.156;17.038;2022-11-18T08:20:25;42.45;;;18.55;;
52354;SDS011;38286;51.156;17.038;2022-11-18T08:22:52;32.58;;;15.80;;
52354;SDS011;38286;51.156;17.038;2022-11-18T08:25:18;42.28;;;18.13;;
52354;SDS011;38286;51.156;17.038;2022-11-18T08:27:43;42.03;;;18.92;;
52354;SDS011;38286;51.156;17.038;2022-11-18T08:30:09;42.58;;;18.10;;
52354;SDS011;38286;51.156;17.038;2022-11-18T08:32:35;43.65;;;17.40;;
52354;SDS011;38286;51.156;17.038;2022-11-18T08:35:01;41.47;;;19.20;;
52354;SDS011;38286;51.156;17.038;2022-11-18T08:37:26;36.58;;;15.95;;
52354;SDS011;38286;51.156;17.038;2022-11-18T08:39:52;36.60;;;17.00;;
52354;SDS011;38286;51.156;17.038;2022-11-18T08:42:18;37.83;;;17.67;;
52354;SDS011;38286;51.156;17.038;2022-11-18T08:44:47;33.95;;;17.45;;
52354;SDS011;38286;51.156;17.038;2022-11-18T08:47:13;38.08;;;18.98;;
52354;SDS011;38286;51.156;17.038;2022-11-18T08:49:39;42.10;;;18.08;;
52354;SDS011;38286;51.156;17.038;2022-11-18T08:52:04;41.00;;;17.02;;
52354;SDS011;38286;51.156;17.038;2022-11-18T08:54:30;35.60;;;17.20;;
52354;SDS011;38286;51.156;17.038;2022-11-18T08:56:55;33.30;;;16.73;;
52354;SDS011;38286;51.156;17.038;2022-11-18T08:59:21;31.50;;;17.17;;
52354;SDS011;38286;51.156;17.038;2022-11-18T09:01:47;36.85;;;17.02;;
52354;SDS011;38286;51.156;17.038;2022-11-18T09:04:12;35.88;;;17.75;;
52354;SDS011;38286;51.156;17.038;2022-11-18T09:06:38;34.00;;;15.77;;
52354;SDS011;38286;51.156;17.038;2022-11-18T09:09:05;33.78;;;17.15;;
52354;SDS011;38286;51.156;17.038;2022-11-18T09:11:31;33.30;;;15.57;;
52354;SDS011;38286;51.156;17.038;2022-11-18T09:13:58;35.70;;;15.73;;
52354;SDS011;38286;51.156;17.038;2022-11-18T09:16:24;32.67;;;16.88;;
52354;SDS011;38286;51.156;17.038;2022-11-18T09:18:50;33.65;;;16.25;;
52354;SDS011;38286;51.156;17.038;2022-11-18T09:21:16;35.20;;;17.75;;
52354;SDS011;38286;51.156;17.038;2022-11-18T09:23:42;30.20;;;16.50;;
52354;SDS011;38286;51.156;17.038;2022-11-18T09:26:10;36.78;;;16.33;;
52354;SDS011;38286;51.156;17.038;2022-11-18T09:28:36;35.90;;;16.80;;
52354;SDS011;38286;51.156;17.038;2022-11-18T09:31:07;37.58;;;17.45;;
52354;SDS011;38286;51.156;17.038;2022-11-18T09:33:34;32.90;;;16.42;;
52354;SDS011;38286;51.156;17.038;2022-11-18T09:36:00;32.42;;;16.13;;
52354;SDS011;38286;51.156;17.038;2022-11-18T09:38:27;34.88;;;16.75;;
52354;SDS011;38286;51.156;17.038;2022-11-18T09:41:03;33.38;;;16.85;;
52354;SDS011;38286;51.156;17.038;2022-11-18T09:43:41;29.85;;;15.75;;
52354;SDS011;38286;51.156;17.038;2022-11-18T09:48:48;36.97;;;16.05;;
52354;SDS011;38286;51.156;17.038;2022-11-18T09:51:36;28.85;;;15.43;;
52354;SDS011;38286;51.156;17.038;2022-11-18T09:54:03;30.73;;;15.15;;
52354;SDS011;38286;51.156;17.038;2022-11-18T09:56:28;31.25;;;15.05;;
52354;SDS011;38286;51.156;17.038;2022-11-18T09:58:54;43.65;;;15.98;;
52354;SDS011;38286;51.156;17.038;2022-11-18T10:01:20;37.10;;;16.23;;
52354;SDS011;38286;51.156;17.038;2022-11-18T10:03:46;38.80;;;15.63;;
52354;SDS011;38286;51.156;17.038;2022-11-18T10:06:25;32.70;;;16.52;;
52354;SDS011;38286;51.156;17.038;2022-11-18T10:12:03;29.38;;;14.65;;
52354;SDS011;38286;51.156;17.038;2022-11-18T10:20:11;30.65;;;14.35;;
52354;SDS011;38286;51.156;17.038;2022-11-18T10:25:17;27.42;;;14.35;;
52354;SDS011;38286;51.156;17.038;2022-11-18T10:27:43;27.55;;;15.20;;
52354;SDS011;38286;51.156;17.038;2022-11-18T10:32:56;28.52;;;14.77;;
52354;SDS011;38286;51.156;17.038;2022-11-18T10:38:02;33.38;;;15.48;;
52354;SDS011;38286;51.156;17.038;2022-11-18T10:40:36;29.60;;;15.35;;
52354;SDS011;38286;51.156;17.038;2022-11-18T10:43:08;30.17;;;15.02;;
52354;SDS011;38286;51.156;17.038;2022-11-18T10:45:34;27.35;;;14.38;;
52354;SDS011;38286;51.156;17.038;2022-11-18T10:50:43;25.83;;;14.02;;
52354;SDS011;38286;51.156;17.038;2022-11-18T10:53:34;27.42;;;13.55;;
52354;SDS011;38286;51.156;17.038;2022-11-18T10:56:05;28.13;;;14.50;;
52354;SDS011;38286;51.156;17.038;2022-11-18T10:58:35;28.17;;;15.48;;
52354;SDS011;38286;51.156;17.038;2022-11-18T11:01:06;28.10;;;14.15;;
52354;SDS011;38286;51.156;17.038;2022-11-18T11:03:35;29.70;;;14.73;;
52354;SDS011;38286;51.156;17.038;2022-11-18T11:06:19;35.13;;;15.48;;
52354;SDS011;38286;51.156;17.038;2022-11-18T11:08:49;31.23;;;14.90;;
52354;SDS011;38286;51.156;17.038;2022-11-18T11:11:39;26.52;;;15.27;;
52354;SDS011;38286;51.156;17.038;2022-11-18T11:14:27;29.38;;;14.77;;
52354;SDS011;38286;51.156;17.038;2022-11-18T11:17:02;30.00;;;14.20;;
52354;SDS011;38286;51.156;17.038;2022-11-18T11:19:41;28.45;;;14.50;;
52354;SDS011;38286;51.156;17.038;2022-11-18T11:22:10;35.35;;;15.68;;
52354;SDS011;38286;51.156;17.038;2022-11-18T11:24:36;29.40;;;13.32;;
52354;SDS011;38286;51.156;17.038;2022-11-18T11:32:43;31.40;;;14.52;;
52354;SDS011;38286;51.156;17.038;2022-11-18T11:44:01;46.05;;;17.40;;
52354;SDS011;38286;51.156;17.038;2022-11-18T11:49:04;35.80;;;15.55;;
52354;SDS011;38286;51.156;17.038;2022-11-18T11:59:31;45.13;;;16.30;;
52354;SDS011;38286;51.156;17.038;2022-11-18T12:02:20;40.47;;;16.00;;
52354;SDS011;38286;51.156;17.038;2022-11-18T12:05:41;37.65;;;16.60;;
52354;SDS011;38286;51.156;17.038;2022-11-18T12:10:44;43.97;;;15.75;;
52354;SDS011;38286;51.156;17.038;2022-11-18T12:18:55;41.38;;;16.85;;
52354;SDS011;38286;51.156;17.038;2022-11-18T12:24:30;42.17;;;18.00;;
52354;SDS011;38286;51.156;17.038;2022-11-18T12:26:59;37.30;;;17.08;;
52354;SDS011;38286;51.156;17.038;2022-11-18T12:29:31;33.85;;;15.63;;
52354;SDS011;38286;51.156;17.038;2022-11-18T12:31:58;36.72;;;15.50;;
52354;SDS011;38286;51.156;17.038;2022-11-18T12:34:30;36.90;;;15.80;;
52354;SDS011;38286;51.156;17.038;2022-11-18T12:50:55;45.38;;;17.48;;
52354;SDS011;38286;51.156;17.038;2022-11-18T12:53:41;39.13;;;16.00;;
52354;SDS011;38286;51.156;17.038;2022-11-18T12:59:00;29.05;;;11.63;;
52354;SDS011;38286;51.156;17.038;2022-11-18T13:01:27;30.58;;;11.88;;
52354;SDS011;38286;51.156;17.038;2022-11-18T13:06:33;29.45;;;12.02;;
52354;SDS011;38286;51.156;17.038;2022-11-18T13:09:01;30.33;;;12.10;;
52354;SDS011;38286;51.156;17.038;2022-11-18T13:11:42;29.48;;;12.20;;
52354;SDS011;38286;51.156;17.038;2022-11-18T13:14:15;29.80;;;11.70;;
52354;SDS011;38286;51.156;17.038;2022-11-18T13:17:01;21.00;;;9.10;;
52354;SDS011;38286;51.156;17.038;2022-11-18T13:19:53;17.58;;;8.68;;
52354;SDS011;38286;51.156;17.038;2022-11-18T13:22:22;24.30;;;9.68;;
52354;SDS011;38286;51.156;17.038;2022-11-18T13:25:20;19.95;;;8.68;;
52354;SDS011;38286;51.156;17.038;2022-11-18T13:27:49;18.67;;;8.05;;
52354;SDS011;38286;51.156;17.038;2022-11-18T13:30:22;17.30;;;8.23;;
52354;SDS011;38286;51.156;17.038;2022-11-18T13:32:48;17.02;;;8.20;;
52354;SDS011;38286;51.156;17.038;2022-11-18T13:35:15;17.73;;;7.35;;
52354;SDS011;38286;51.156;17.038;2022-11-18T13:37:47;16.08;;;7.75;;
52354;SDS011;38286;51.156;17.038;2022-11-18T13:40:28;12.52;;;6.97;;
52354;SDS011;38286;51.156;17.038;2022-11-18T13:42:55;11.90;;;5.07;;
52354;SDS011;38286;51.156;17.038;2022-11-18T13:45:22;11.43;;;5.70;;
52354;SDS011;38286;51.156;17.038;2022-11-18T13:48:04;12.65;;;5.43;;
52354;SDS011;38286;51.156;17.038;2022-11-18T13:50:34;9.90;;;4.97;;
52354;SDS011;38286;51.156;17.038;2022-11-18T13:56:04;8.30;;;4.80;;
52354;SDS011;38286;51.156;17.038;2022-11-18T13:58:31;9.65;;;4.57;;
52354;SDS011;38286;51.156;17.038;2022-11-18T14:01:00;10.25;;;5.07;;
52354;SDS011;38286;51.156;17.038;2022-11-18T14:06:10;14.85;;;5.72;;
52354;SDS011;38286;51.156;17.038;2022-11-18T14:08:36;9.90;;;4.88;;
52354;SDS011;38286;51.156;17.038;2022-11-18T14:11:03;18.58;;;5.88;;
52354;SDS011;38286;51.156;17.038;2022-11-18T14:13:31;21.00;;;6.78;;
52354;SDS011;38286;51.156;17.038;2022-11-18T14:16:44;11.80;;;5.63;;
52354;SDS011;38286;51.156;17.038;2022-11-18T14:18:45;12.50;;;5.72;;
52354;SDS011;38286;51.156;17.038;2022-11-18T14:21:12;27.88;;;6.50;;
52354;SDS011;38286;51.156;17.038;2022-11-18T14:23:41;27.73;;;6.47;;
52354;SDS011;38286;51.156;17.038;2022-11-18T14:26:07;12.35;;;5.78;;
52354;SDS011;38286;51.156;17.038;2022-11-18T14:28:34;11.93;;;5.57;;
52354;SDS011;38286;51.156;17.038;2022-11-18T14:31:05;9.55;;;4.93;;
52354;SDS011;38286;51.156;17.038;2022-11-18T14:36:30;10.90;;;5.35;;
52354;SDS011;38286;51.156;17.038;2022-11-18T14:38:56;9.10;;;4.85;;
52354;SDS011;38286;51.156;17.038;2022-11-18T14:41:22;11.93;;;4.85;;
52354;SDS011;38286;51.156;17.038;2022-11-18T14:44:06;12.02;;;5.43;;
52354;SDS011;38286;51.156;17.038;2022-11-18T14:46:32;13.77;;;6.25;;
52354;SDS011;38286;51.156;17.038;2022-11-18T14:49:00;11.45;;;5.32;;
52354;SDS011;38286;51.156;17.038;2022-11-18T14:51:26;12.40;;;6.07;;
52354;SDS011;38286;51.156;17.038;2022-11-18T14:53:52;17.40;;;6.18;;
52354;SDS011;38286;51.156;17.038;2022-11-18T14:58:53;14.07;;;6.13;;
52354;SDS011;38286;51.156;17.038;2022-11-18T15:01:19;14.90;;;6.85;;
52354;SDS011;38286;51.156;17.038;2022-11-18T15:03:44;14.90;;;6.13;;
52354;SDS011;38286;51.156;17.038;2022-11-18T15:06:13;13.35;;;6.28;;
52354;SDS011;38286;51.156;17.038;2022-11-18T15:08:43;14.93;;;5.85;;
52354;SDS011;38286;51.156;17.038;2022-11-18T15:11:11;12.90;;;5.60;;
52354;SDS011;38286;51.156;17.038;2022-11-18T15:13:37;12.43;;;6.20;;
52354;SDS011;38286;51.156;17.038;2022-11-18T15:16:11;14.80;;;7.40;;
52354;SDS011;38286;51.156;17.038;2022-11-18T15:18:51;15.48;;;8.02;;
52354;SDS011;38286;51.156;17.038;2022-11-18T15:21:18;13.20;;;7.40;;
52354;SDS011;38286;51.156;17.038;2022-11-18T15:23:44;16.10;;;7.55;;
52354;SDS011;38286;51.156;17.038;2022-11-18T15:26:18;14.90;;;7.03;;
52354;SDS011;38286;51.156;17.038;2022-11-18T15:28:46;14.05;;;7.22;;
52354;SDS011;38286;51.156;17.038;2022-11-18T15:31:12;15.40;;;7.93;;
52354;SDS011;38286;51.156;17.038;2022-11-18T15:33:38;15.07;;;8.05;;
52354;SDS011;38286;51.156;17.038;2022-11-18T15:36:08;19.00;;;8.80;;
52354;SDS011;38286;51.156;17.038;2022-11-18T15:38:36;22.95;;;8.95;;
52354;SDS011;38286;51.156;17.038;2022-11-18T15:41:02;22.27;;;9.25;;
52354;SDS011;38286;51.156;17.038;2022-11-18T15:43:27;20.15;;;8.43;;
52354;SDS011;38286;51.156;17.038;2022-11-18T15:45:56;21.08;;;9.15;;
52354;SDS011;38286;51.156;17.038;2022-11-18T15:48:23;21.63;;;10.45;;
52354;SDS011;38286;51.156;17.038;2022-11-18T15:50:48;20.35;;;9.43;;
52354;SDS011;38286;51.156;17.038;2022-11-18T15:53:14;18.92;;;10.10;;
52354;SDS011;38286;51.156;17.038;2022-11-18T15:55:39;21.92;;;10.23;;
52354;SDS011;38286;51.156;17.038;2022-11-18T15:58:05;16.83;;;8.80;;
52354;SDS011;38286;51.156;17.038;2022-11-18T16:00:31;16.35;;;7.75;;
52354;SDS011;38286;51.156;17.038;2022-11-18T16:02:56;15.02;;;7.13;;
52354;SDS011;38286;51.156;17.038;2022-11-18T16:05:22;16.17;;;6.85;;
52354;SDS011;38286;51.156;17.038;2022-11-18T16:07:48;18.17;;;7.32;;
52354;SDS011;38286;51.156;17.038;2022-11-18T16:10:13;17.48;;;6.47;;
52354;SDS011;38286;51.156;17.038;2022-11-18T16:12:58;17.60;;;7.78;;
52354;SDS011;38286;51.156;17.038;2022-11-18T16:15:24;19.30;;;8.27;;
52354;SDS011;38286;51.156;17.038;2022-11-18T16:18:08;26.23;;;10.13;;
52354;SDS011;38286;51.156;17.038;2022-11-18T16:20:34;27.90;;;11.00;;
52354;SDS011;38286;51.156;17.038;2022-11-18T16:23:01;26.90;;;11.52;;
52354;SDS011;38286;51.156;17.038;2022-11-18T16:25:26;28.30;;;12.23;;
52354;SDS011;38286;51.156;17.038;2022-11-18T16:27:53;33.20;;;13.85;;
52354;SDS011;38286;51.156;17.038;2022-11-18T16:30:19;34.17;;;13.43;;
52354;SDS011;38286;51.156;17.038;2022-11-18T16:33:03;29.15;;;13.70;;